Time;durP1;ratioP1;P1;durP2;ratioP2;P2;SDS_P1;SDS_P2;PMS_P1;PMS_P2;Temp;Humidity;BMP_temperature;BMP_pressure;BME280_temperature;BME280_humidity;BME280_pressure;Samples;Min_cycle;Max_cycle;Signal;HPM_P1;HPM_P2
2022/05/13 00:01:19;;;;;;;3.90;1.90;;;11.80;99.90;;;;;;5074716;28;20270;-84
2022/05/13 00:03:47;;;;;;;3.53;1.90;;;11.80;99.90;;;;;;5068355;28;20662;-84
2022/05/13 00:06:14;;;;;;;5.20;1.97;;;12.10;99.90;;;;;;5075429;28;20270;-85
2022/05/13 00:08:41;;;;;;;5.33;1.90;;;11.90;99.90;;;;;;5073607;28;20200;-83
2022/05/13 00:11:09;;;;;;;4.90;1.90;;;12.00;99.90;;;;;;5070361;28;20710;-80
2022/05/13 00:13:36;;;;;;;7.97;2.00;;;11.70;99.90;;;;;;5050343;28;20243;-83
2022/05/13 00:16:04;;;;;;;7.10;1.60;;;12.90;99.90;;;;;;5044897;28;20254;-82
2022/05/13 00:18:34;;;;;;;6.33;1.73;;;12.10;99.90;;;;;;5054502;28;20201;-82
2022/05/13 00:21:01;;;;;;;4.03;1.57;;;12.10;99.90;;;;;;5057745;28;20327;-82
2022/05/13 00:23:28;;;;;;;6.53;1.80;;;12.50;99.90;;;;;;5059653;28;20213;-81
2022/05/13 00:25:56;;;;;;;5.77;1.90;;;13.10;99.90;;;;;;5057180;28;20702;-83
2022/05/13 00:28:22;;;;;;;3.50;1.50;;;11.60;99.90;;;;;;5052641;28;20213;-83
2022/05/13 00:30:50;;;;;;;7.03;1.77;;;11.80;99.90;;;;;;5052683;28;20205;-82
2022/05/13 00:33:18;;;;;;;4.47;1.53;;;13.00;99.90;;;;;;5053203;28;20210;-82
2022/05/13 00:35:46;;;;;;;7.37;2.63;;;11.70;99.90;;;;;;5054371;28;20220;-84
2022/05/13 00:38:13;;;;;;;3.47;1.67;;;11.60;99.90;;;;;;5058690;28;20304;-84
2022/05/13 00:40:42;;;;;;;3.77;1.80;;;11.50;99.90;;;;;;5058898;28;20291;-82
2022/05/13 00:43:11;;;;;;;3.47;1.70;;;11.70;99.90;;;;;;5052377;28;20193;-82
2022/05/13 00:45:39;;;;;;;3.73;1.70;;;11.80;99.90;;;;;;5051208;28;20214;-82
2022/05/13 00:48:07;;;;;;;7.50;1.60;;;11.90;99.90;;;;;;5050892;28;20215;-84
2022/05/13 00:50:37;;;;;;;3.33;1.50;;;11.70;99.90;;;;;;5055724;28;20207;-85
2022/05/13 00:53:10;;;;;;;3.77;1.67;;;11.50;99.90;;;;;;5050802;28;20217;-83
2022/05/13 00:55:41;;;;;;;4.03;1.73;;;11.40;99.90;;;;;;5058774;28;20266;-84
2022/05/13 00:58:15;;;;;;;6.30;1.77;;;11.40;99.90;;;;;;5056507;28;20216;-82
2022/05/13 01:00:43;;;;;;;6.73;1.97;;;11.90;99.90;;;;;;5052421;28;20785;-82
2022/05/13 01:03:11;;;;;;;6.30;1.80;;;12.10;99.90;;;;;;5052828;28;20202;-84
2022/05/13 01:05:41;;;;;;;5.63;1.90;;;11.20;99.90;;;;;;5049822;28;20210;-83
2022/05/13 01:08:11;;;;;;;4.80;2.00;;;12.80;99.90;;;;;;5060422;28;20305;-84
2022/05/13 01:10:40;;;;;;;3.00;1.70;;;11.60;99.90;;;;;;5055780;28;20248;-83
2022/05/13 01:13:11;;;;;;;7.13;1.67;;;12.40;99.90;;;;;;5055479;28;20201;-83
2022/05/13 01:15:41;;;;;;;4.43;1.80;;;11.60;99.90;;;;;;5048421;28;20231;-81
2022/05/13 01:18:10;;;;;;;5.03;3.00;;;12.30;99.90;;;;;;5050217;28;20202;-83
2022/05/13 01:20:48;;;;;;;5.00;1.80;;;11.60;99.90;;;;;;5059200;28;20229;-82
2022/05/13 01:23:21;;;;;;;4.77;2.07;;;11.60;99.90;;;;;;5057026;28;20193;-82
2022/05/13 01:25:54;;;;;;;6.37;1.87;;;11.50;99.90;;;;;;5052563;28;20579;-81
2022/05/13 01:28:27;;;;;;;4.23;2.00;;;11.30;99.90;;;;;;5051625;28;20202;-82
2022/05/13 01:30:57;;;;;;;4.77;1.90;;;11.50;99.90;;;;;;5056029;28;20951;-83
2022/05/13 01:33:26;;;;;;;4.70;2.63;;;12.00;99.90;;;;;;5054114;28;20208;-84
2022/05/13 01:35:56;;;;;;;4.70;1.70;;;11.30;99.90;;;;;;5053997;28;20288;-82
2022/05/13 01:38:28;;;;;;;5.73;2.93;;;11.30;99.90;;;;;;5057859;28;20217;-83
2022/05/13 01:40:55;;;;;;;4.73;2.00;;;11.50;99.90;;;;;;5060168;28;20246;-83
2022/05/13 01:43:26;;;;;;;6.83;2.17;;;11.40;99.90;;;;;;5053644;28;20307;-87
2022/05/13 01:45:53;;;;;;;6.00;2.30;;;11.40;99.90;;;;;;5052354;28;20271;-85
2022/05/13 01:48:21;;;;;;;8.57;2.30;;;11.70;99.90;;;;;;5053416;28;20205;-83
2022/05/13 01:50:48;;;;;;;7.53;2.10;;;11.40;99.90;;;;;;5055907;28;20216;-82
2022/05/13 01:53:15;;;;;;;4.10;2.30;;;11.20;99.90;;;;;;5042300;28;20211;-82
2022/05/13 01:55:44;;;;;;;4.07;2.57;;;11.00;99.90;;;;;;5046907;28;20227;-82
2022/05/13 01:58:14;;;;;;;6.63;2.00;;;12.60;99.90;;;;;;5054136;28;20560;-82
2022/05/13 02:00:42;;;;;;;7.83;2.70;;;11.20;99.90;;;;;;5058436;28;20237;-85
2022/05/13 02:05:56;;;;;;;4.33;2.27;;;11.80;99.90;;;;;;5056962;28;20206;-83
2022/05/13 02:08:23;;;;;;;6.43;2.73;;;10.90;99.90;;;;;;5094023;28;20217;-84
2022/05/13 02:10:51;;;;;;;4.87;2.30;;;11.20;99.90;;;;;;5067695;28;20220;-86
2022/05/13 02:13:18;;;;;;;6.83;2.53;;;11.70;99.90;;;;;;5059431;28;20207;-87
2022/05/13 02:15:45;;;;;;;5.13;2.33;;;11.00;99.90;;;;;;5062238;28;20215;-85
2022/05/13 02:18:12;;;;;;;8.50;2.57;;;11.00;99.90;;;;;;5057601;28;20326;-82
2022/05/13 02:20:40;;;;;;;6.00;2.50;;;11.00;99.90;;;;;;5054929;28;20225;-84
2022/05/13 02:23:08;;;;;;;5.17;2.57;;;12.30;99.90;;;;;;5061908;28;20205;-84
2022/05/13 02:25:34;;;;;;;9.17;2.50;;;11.00;99.90;;;;;;5054185;28;20222;-86
2022/05/13 02:28:03;;;;;;;9.00;2.63;;;12.10;99.90;;;;;;5058988;28;20225;-83
2022/05/13 02:30:31;;;;;;;9.63;2.87;;;11.40;99.90;;;;;;5054317;28;20225;-84
2022/05/13 02:32:58;;;;;;;6.63;2.73;;;11.10;99.90;;;;;;5050270;28;20700;-86
2022/05/13 02:35:25;;;;;;;6.80;2.50;;;11.30;99.90;;;;;;5052650;28;20215;-84
2022/05/13 02:37:52;;;;;;;4.57;2.60;;;11.00;99.90;;;;;;5055966;28;20272;-84
2022/05/13 02:40:21;;;;;;;6.97;2.97;;;11.50;99.90;;;;;;5054848;28;20226;-85
2022/05/13 02:42:48;;;;;;;7.20;2.80;;;11.00;99.90;;;;;;5058585;28;20296;-86
2022/05/13 02:45:14;;;;;;;7.97;2.73;;;11.80;99.90;;;;;;5047940;28;20216;-83
2022/05/13 02:47:42;;;;;;;7.40;2.83;;;11.60;99.90;;;;;;5053655;28;20213;-87
2022/05/13 02:50:18;;;;;;;9.93;3.00;;;11.60;99.90;;;;;;5053769;28;20202;-83
2022/05/13 02:52:50;;;;;;;12.07;2.83;;;11.50;99.90;;;;;;5052534;28;20262;-86
2022/05/13 02:55:19;;;;;;;9.43;2.73;;;11.50;99.90;;;;;;5082566;28;20224;-86
2022/05/13 02:57:46;;;;;;;16.73;3.37;;;11.80;99.90;;;;;;5055654;28;20299;-85
2022/05/13 03:00:14;;;;;;;8.03;3.30;;;11.60;99.90;;;;;;5050001;28;20239;-84
2022/05/13 03:02:43;;;;;;;7.43;2.67;;;11.70;99.90;;;;;;5053040;28;20622;-86
2022/05/13 03:05:11;;;;;;;12.47;3.80;;;11.40;99.90;;;;;;5051735;28;20295;-85
2022/05/13 03:07:38;;;;;;;11.67;3.13;;;11.50;99.90;;;;;;5057486;28;20723;-85
2022/05/13 03:10:11;;;;;;;7.53;3.60;;;11.40;99.90;;;;;;5062704;28;20223;-84
2022/05/13 03:12:39;;;;;;;8.33;3.00;;;11.60;99.90;;;;;;5054511;28;20272;-86
2022/05/13 03:15:07;;;;;;;13.63;4.53;;;11.50;99.90;;;;;;5052397;28;20226;-82
2022/05/13 03:17:35;;;;;;;10.77;3.13;;;11.70;99.90;;;;;;5050254;28;20650;-87
2022/05/13 03:20:06;;;;;;;7.77;3.27;;;13.00;99.90;;;;;;5052606;28;20205;-86
2022/05/13 03:22:34;;;;;;;8.30;3.60;;;11.80;99.90;;;;;;5057031;28;20795;-87
2022/05/13 03:25:01;;;;;;;7.33;3.33;;;12.30;99.90;;;;;;5052131;28;20222;-84
2022/05/13 03:27:28;;;;;;;6.80;3.70;;;12.60;99.90;;;;;;5050488;28;20209;-86
2022/05/13 03:29:55;;;;;;;8.47;3.63;;;11.80;99.90;;;;;;5046852;28;20238;-86
2022/05/13 03:32:22;;;;;;;8.23;3.47;;;11.80;99.90;;;;;;5040701;28;20216;-85
2022/05/13 03:34:49;;;;;;;11.47;3.80;;;12.60;99.90;;;;;;5049999;28;20229;-84
2022/05/13 03:37:16;;;;;;;7.83;3.83;;;11.90;99.90;;;;;;5055575;28;20576;-85
2022/05/13 03:39:44;;;;;;;12.37;3.90;;;12.20;99.90;;;;;;5057613;28;20233;-86
2022/05/13 03:42:11;;;;;;;10.70;3.30;;;11.90;99.90;;;;;;5051729;28;20251;-83
2022/05/13 03:44:38;;;;;;;9.47;3.43;;;12.20;99.90;;;;;;5049347;28;20245;-86
2022/05/13 03:47:05;;;;;;;9.70;3.83;;;11.80;99.90;;;;;;5053029;28;20211;-87
2022/05/13 03:49:32;;;;;;;10.30;3.93;;;11.80;99.90;;;;;;5057837;28;20548;-87
2022/05/13 03:52:00;;;;;;;12.37;4.87;;;12.00;99.90;;;;;;5060148;28;20232;-87
2022/05/13 03:54:27;;;;;;;11.50;3.87;;;12.60;99.90;;;;;;5058282;28;20222;-85
2022/05/13 03:56:54;;;;;;;13.00;4.30;;;12.00;99.90;;;;;;5053316;28;20674;-85
2022/05/13 03:59:21;;;;;;;9.27;4.43;;;11.80;99.90;;;;;;5053692;28;20204;-84
2022/05/13 04:01:48;;;;;;;9.77;4.00;;;12.30;99.90;;;;;;5045830;28;20231;-86
2022/05/13 04:04:20;;;;;;;9.57;4.00;;;12.70;99.90;;;;;;5056080;28;20235;-85
2022/05/13 04:09:35;;;;;;;15.03;4.30;;;12.00;99.90;;;;;;5054521;28;20231;-86
2022/05/13 04:17:36;;;;;;;12.47;4.53;;;12.00;99.90;;;;;;5051256;28;20215;-85
2022/05/13 04:20:04;;;;;;;10.10;4.17;;;11.90;99.90;;;;;;5055430;28;20199;-87
2022/05/13 04:22:31;;;;;;;11.70;4.87;;;12.10;99.90;;;;;;5058223;28;20227;-86
2022/05/13 04:24:59;;;;;;;12.13;4.80;;;12.20;99.90;;;;;;5057855;28;20262;-83
2022/05/13 04:27:26;;;;;;;13.90;5.40;;;12.00;99.90;;;;;;5052722;28;20242;-85
2022/05/13 04:29:54;;;;;;;15.07;6.70;;;12.90;99.90;;;;;;5053519;28;20215;-85
2022/05/13 04:32:21;;;;;;;15.33;4.87;;;12.40;99.90;;;;;;5058381;28;20203;-84
2022/05/13 04:34:48;;;;;;;21.10;5.60;;;12.10;99.90;;;;;;5056027;28;20579;-86
2022/05/13 04:37:15;;;;;;;10.50;4.90;;;12.60;99.90;;;;;;5062366;28;20655;-84
2022/05/13 04:39:42;;;;;;;18.57;5.87;;;12.20;99.90;;;;;;5061573;28;20230;-82
2022/05/13 04:45:11;;;;;;;18.00;6.10;;;12.60;99.90;;;;;;5049172;28;20776;-86
2022/05/13 04:50:24;;;;;;;15.30;5.10;;;12.70;99.90;;;;;;5058189;28;20216;-84
2022/05/13 04:52:51;;;;;;;14.17;5.83;;;13.00;99.90;;;;;;5058842;28;20203;-85
2022/05/13 04:55:18;;;;;;;16.47;5.47;;;12.30;99.90;;;;;;5057558;28;20234;-81
2022/05/13 04:57:45;;;;;;;15.00;5.87;;;13.10;99.90;;;;;;5053014;28;20262;-85
2022/05/13 05:00:13;;;;;;;18.33;6.30;;;12.30;99.90;;;;;;5051224;28;20270;-85
2022/05/13 05:02:41;;;;;;;15.17;6.13;;;12.70;99.90;;;;;;5045916;28;20281;-84
2022/05/13 05:05:08;;;;;;;15.93;7.60;;;12.60;99.90;;;;;;5051239;28;20267;-84
2022/05/13 05:07:35;;;;;;;15.63;6.13;;;12.70;99.90;;;;;;5058459;28;20253;-86
2022/05/13 05:10:02;;;;;;;26.47;6.73;;;12.90;99.90;;;;;;5054984;28;20281;-84
2022/05/13 05:12:29;;;;;;;20.87;7.20;;;13.70;99.90;;;;;;5047595;28;20208;-86
2022/05/13 05:14:59;;;;;;;16.07;6.10;;;12.60;99.90;;;;;;5057774;28;20235;-84
2022/05/13 05:17:26;;;;;;;12.53;6.07;;;12.50;99.90;;;;;;5050883;28;20208;-84
2022/05/13 05:19:52;;;;;;;19.70;6.53;;;12.50;99.90;;;;;;5056182;28;20208;-85
2022/05/13 05:22:19;;;;;;;16.57;6.30;;;13.30;99.90;;;;;;5050385;28;20239;-84
2022/05/13 05:24:46;;;;;;;13.47;5.77;;;12.90;99.90;;;;;;5059613;28;20223;-84
2022/05/13 05:27:13;;;;;;;22.27;7.17;;;13.00;99.90;;;;;;5049944;28;20568;-83
2022/05/13 05:29:42;;;;;;;23.23;7.53;;;12.90;99.90;;;;;;5050857;28;20284;-85
2022/05/13 05:32:09;;;;;;;19.33;7.10;;;13.20;99.90;;;;;;5051395;28;20216;-85
2022/05/13 05:34:36;;;;;;;19.33;7.30;;;14.00;99.90;;;;;;5050454;28;20945;-81
2022/05/13 05:37:03;;;;;;;19.17;6.33;;;13.20;99.90;;;;;;5055054;28;20196;-82
2022/05/13 05:39:31;;;;;;;16.97;6.63;;;13.50;99.90;;;;;;5032000;28;20221;-85
2022/05/13 05:41:58;;;;;;;13.13;6.03;;;13.60;99.90;;;;;;5050860;28;20232;-86
2022/05/13 05:44:26;;;;;;;16.77;6.93;;;14.70;99.90;;;;;;5055519;28;20198;-85
2022/05/13 05:46:52;;;;;;;21.70;7.97;;;13.90;99.90;;;;;;5055084;28;20216;-83
2022/05/13 05:49:20;;;;;;;17.27;6.40;;;13.30;99.90;;;;;;5046177;28;20227;-84
2022/05/13 05:51:46;;;;;;;18.57;6.97;;;14.40;99.90;;;;;;5052728;28;20236;-82
2022/05/13 05:57:14;;;;;;;23.00;6.77;;;14.60;99.90;;;;;;5051278;28;20573;-85
2022/05/13 05:59:46;;;;;;;19.97;6.97;;;14.40;99.90;;;;;;5052771;28;20237;-84
2022/05/13 06:02:13;;;;;;;17.80;6.97;;;14.90;99.90;;;;;;5051724;28;20599;-81
2022/05/13 06:04:40;;;;;;;25.37;7.17;;;14.30;99.90;;;;;;5047839;28;20209;-81
2022/05/13 06:07:10;;;;;;;16.27;5.93;;;14.20;99.90;;;;;;5052121;28;20909;-83
2022/05/13 06:09:38;;;;;;;18.90;6.27;;;14.40;99.90;;;;;;5049866;28;20309;-80
2022/05/13 06:12:10;;;;;;;16.97;6.20;;;14.60;99.90;;;;;;5057445;28;20738;-79
2022/05/13 06:14:37;;;;;;;10.80;5.70;;;14.70;99.90;;;;;;5051246;28;20196;-82
2022/05/13 06:17:08;;;;;;;11.37;5.30;;;14.90;99.90;;;;;;5048419;28;20202;-81
2022/05/13 06:19:36;;;;;;;19.80;5.57;;;14.80;99.90;;;;;;5049237;28;20743;-81
2022/05/13 06:22:03;;;;;;;14.57;4.80;;;15.30;99.90;;;;;;5048628;28;20262;-82
2022/05/13 06:24:30;;;;;;;15.00;5.17;;;15.20;99.90;;;;;;5054126;28;20228;-83
2022/05/13 06:26:57;;;;;;;15.57;4.80;;;15.10;99.90;;;;;;5048131;28;20199;-82
2022/05/13 06:29:25;;;;;;;13.67;5.53;;;15.60;99.90;;;;;;5050588;28;20234;-82
2022/05/13 06:31:53;;;;;;;10.70;4.67;;;15.40;99.90;;;;;;5047557;28;20238;-80
2022/05/13 06:34:22;;;;;;;13.53;4.30;;;16.30;99.90;;;;;;5050734;28;20746;-82
2022/05/13 06:36:50;;;;;;;15.07;4.60;;;15.20;99.90;;;;;;5049713;28;20210;-83
2022/05/13 06:39:18;;;;;;;12.57;5.10;;;15.20;99.90;;;;;;5050482;28;20573;-85
2022/05/13 06:41:46;;;;;;;14.50;4.27;;;15.30;99.90;;;;;;5049970;28;20222;-83
2022/05/13 06:44:15;;;;;;;10.10;4.30;;;15.60;99.90;;;;;;5048684;28;20667;-82
2022/05/13 06:46:44;;;;;;;13.67;4.33;;;15.30;99.90;;;;;;5045559;28;20208;-82
2022/05/13 06:49:12;;;;;;;11.63;4.03;;;15.90;99.90;;;;;;5047584;28;20220;-82
2022/05/13 06:51:40;;;;;;;14.37;4.07;;;16.00;99.90;;;;;;5045513;28;20533;-83
2022/05/13 06:54:09;;;;;;;12.47;4.67;;;15.50;99.90;;;;;;5044305;28;20220;-82
2022/05/13 06:56:38;;;;;;;12.47;4.80;;;15.50;99.90;;;;;;5047745;28;20208;-83
2022/05/13 06:59:09;;;;;;;16.67;4.77;;;15.60;99.90;;;;;;5048142;28;20212;-84
2022/05/13 07:01:40;;;;;;;11.73;4.30;;;15.90;99.90;;;;;;5050337;28;20225;-82
2022/05/13 07:04:07;;;;;;;10.80;4.57;;;16.30;99.90;;;;;;5048500;28;20615;-83
2022/05/13 07:06:33;;;;;;;12.43;4.63;;;16.30;99.90;;;;;;5048497;28;20247;-83
2022/05/13 07:09:00;;;;;;;13.10;4.50;;;16.00;99.90;;;;;;5052067;28;20304;-84
2022/05/13 07:11:27;;;;;;;19.20;4.10;;;16.10;99.90;;;;;;5052672;28;20201;-84
2022/05/13 07:13:54;;;;;;;11.97;4.13;;;16.40;99.90;;;;;;5051819;28;20680;-85
2022/05/13 07:16:22;;;;;;;11.93;3.80;;;16.50;99.90;;;;;;5050356;28;20216;-81
2022/05/13 07:18:50;;;;;;;8.03;4.23;;;17.10;99.90;;;;;;5052683;28;20296;-80
2022/05/13 07:21:23;;;;;;;12.07;3.30;;;17.40;99.90;;;;;;5052406;28;20220;-80
2022/05/13 07:23:53;;;;;;;10.15;4.00;;;;;;;;;;5053704;28;20201;-82
2022/05/13 07:26:20;;;;;;;9.70;3.60;;;18.50;99.90;;;;;;5061255;28;20552;-84
2022/05/13 07:28:47;;;;;;;10.25;3.42;;;19.10;99.90;;;;;;5059020;28;20205;-83
2022/05/13 07:31:14;;;;;;;10.15;3.20;;;19.20;99.90;;;;;;5055205;28;20583;-83
2022/05/13 07:33:42;;;;;;;10.10;3.42;;;20.30;99.90;;;;;;5058737;28;20224;-88
2022/05/13 07:36:09;;;;;;;10.10;2.85;;;20.90;99.90;;;;;;5060901;28;20334;-85
2022/05/13 07:41:16;;;;;;;8.75;3.08;;;21.10;99.90;;;;;;5063785;28;20257;-84
2022/05/13 07:41:38;;;;;;;11.20;3.20;;;21.00;99.90;;;;;;5051194;28;20696;-83
2022/05/13 07:44:20;;;;;;;10.55;3.60;;;20.70;99.90;;;;;;5048591;28;20213;-83
2022/05/13 07:46:47;;;;;;;8.20;3.13;;;20.70;99.90;;;;;;5050125;28;20208;-83
2022/05/13 07:49:15;;;;;;;12.13;3.58;;;20.30;99.90;;;;;;5058712;28;20258;-82
2022/05/13 07:51:42;;;;;;;9.43;3.72;;;19.80;99.90;;;;;;5064756;28;20672;-82
2022/05/13 07:54:09;;;;;;;10.85;3.15;;;19.60;99.90;;;;;;5061793;28;20559;-81
2022/05/13 07:56:37;;;;;;;10.00;3.00;;;19.70;99.90;;;;;;5052806;28;20216;-82
2022/05/13 07:59:04;;;;;;;10.93;3.08;;;19.70;99.90;;;;;;5054841;28;20227;-80
2022/05/13 08:01:32;;;;;;;5.15;2.70;;;20.60;99.90;;;;;;5052299;28;20235;-85
2022/05/13 08:04:01;;;;;;;5.93;1.90;;;20.90;99.90;;;;;;5052582;28;20683;-81
2022/05/13 08:06:27;;;;;;;4.50;1.80;;;21.20;99.90;;;;;;5055375;28;20193;-83
2022/05/13 08:08:58;;;;;;;6.13;2.03;;;21.40;99.90;;;;;;5060763;28;20660;-83
2022/05/13 08:11:29;;;;;;;5.22;1.63;;;21.10;99.90;;;;;;5059092;28;20223;-81
2022/05/13 08:13:56;;;;;;;7.47;1.95;;;21.10;99.90;;;;;;5054111;28;20213;-82
2022/05/13 08:16:29;;;;;;;5.93;1.35;;;21.00;99.90;;;;;;5053704;28;20208;-82
2022/05/13 08:19:01;;;;;;;4.03;1.48;;;20.60;99.90;;;;;;5053988;28;20231;-81
2022/05/13 08:21:31;;;;;;;4.93;1.63;;;20.40;99.90;;;;;;5057914;28;20204;-83
2022/05/13 08:23:58;;;;;;;5.28;1.48;;;20.70;99.90;;;;;;5055027;28;20217;-81
2022/05/13 08:26:25;;;;;;;3.53;1.67;;;21.60;99.90;;;;;;5058152;28;20220;-83
2022/05/13 08:28:52;;;;;;;4.10;1.60;;;22.60;99.90;;;;;;5057991;28;20620;-82
2022/05/13 08:31:19;;;;;;;4.30;1.90;;;21.70;99.90;;;;;;5059374;28;20622;-81
2022/05/13 08:33:45;;;;;;;4.28;1.58;;;22.30;99.90;;;;;;5052497;28;20674;-82
2022/05/13 08:36:14;;;;;;;7.95;1.48;;;21.50;99.90;;;;;;5054439;28;20209;-83
2022/05/13 08:38:43;;;;;;;6.50;1.75;;;21.30;99.90;;;;;;5053177;28;20209;-87
2022/05/13 08:41:10;;;;;;;5.70;1.80;;;21.30;99.90;;;;;;5056384;28;20332;-85
2022/05/13 08:43:44;;;;;;;4.20;1.67;;;21.20;99.90;;;;;;5052672;28;20700;-80
2022/05/13 08:46:21;;;;;;;7.18;1.58;;;21.00;99.90;;;;;;5050806;28;20267;-83
2022/05/13 08:49:07;;;;;;;9.43;1.77;;;20.80;99.90;;;;;;5049383;28;20684;-82
2022/05/13 08:51:57;;;;;;;4.07;1.73;;;20.60;99.90;;;;;;5058091;28;20239;-83
2022/05/13 08:54:34;;;;;;;16.15;2.70;;;20.70;99.90;;;;;;5051665;28;20266;-82
2022/05/13 08:57:06;;;;;;;7.57;1.75;;;21.00;99.90;;;;;;5050120;28;22057;-84
2022/05/13 08:59:45;;;;;;;4.18;1.60;;;21.10;99.90;;;;;;5049843;28;20268;-83
2022/05/13 09:02:23;;;;;;;7.03;1.48;;;20.80;99.80;;;;;;5049556;28;20217;-81
2022/05/13 09:05:11;;;;;;;3.75;1.20;;;20.30;99.80;;;;;;5054058;28;20228;-82
2022/05/13 09:07:39;;;;;;;5.88;1.48;;;20.10;99.90;;;;;;5046852;28;20209;-82
2022/05/13 09:10:07;;;;;;;6.43;1.42;;;20.30;99.90;;;;;;5055031;28;20298;-81
2022/05/13 09:12:57;;;;;;;4.95;1.25;;;20.50;99.90;;;;;;5057818;28;20258;-82
2022/05/13 09:15:34;;;;;;;5.10;1.55;;;21.10;99.30;;;;;;5051092;28;20602;-83
2022/05/13 09:18:28;;;;;;;4.22;1.60;;;20.80;99.00;;;;;;5059424;28;20219;-81
2022/05/13 09:20:58;;;;;;;5.28;1.50;;;20.60;99.00;;;;;;5050114;28;20257;-84
2022/05/13 09:23:26;;;;;;;6.55;2.20;;;20.50;99.90;;;;;;5051803;28;20225;-77
2022/05/13 09:26:13;;;;;;;7.65;1.33;;;20.50;99.80;;;;;;5056013;28;20215;-82
2022/05/13 09:29:03;;;;;;;4.25;1.30;;;20.30;99.60;;;;;;5051527;28;20324;-83
2022/05/13 09:31:33;;;;;;;5.88;1.45;;;20.30;99.50;;;;;;5054195;28;20656;-82
2022/05/13 09:34:34;;;;;;;9.10;1.50;;;19.60;99.90;;;;;;5062202;28;20263;-83
2022/05/13 09:37:17;;;;;;;5.25;1.50;;;20.40;99.80;;;;;;5067528;28;20217;-82
2022/05/13 09:39:47;;;;;;;5.25;1.40;;;20.70;99.80;;;;;;5060697;28;20213;-80
2022/05/13 09:42:24;;;;;;;6.47;1.65;;;20.70;99.60;;;;;;5062679;28;20270;-82
2022/05/13 09:45:20;;;;;;;5.50;1.92;;;20.20;99.30;;;;;;5066481;28;20205;-82
2022/05/13 09:47:59;;;;;;;4.20;1.77;;;20.40;99.20;;;;;;5061776;28;20216;-81
2022/05/13 09:50:30;;;;;;;39.90;4.63;;;20.40;99.90;;;;;;5070138;28;20228;-81
2022/05/13 09:53:22;;;;;;;84.00;8.02;;;20.40;99.90;;;;;;5070887;28;20215;-81
2022/05/13 09:55:51;;;;;;;36.28;4.03;;;20.60;99.60;;;;;;5061752;28;20209;-80
2022/05/13 09:58:27;;;;;;;6.10;1.40;;;20.40;98.70;;;;;;5062123;28;20288;-80
2022/05/13 10:01:09;;;;;;;4.53;1.48;;;20.30;97.70;;;;;;5058269;28;20240;-83
2022/05/13 10:03:39;;;;;;;4.80;1.60;;;20.30;97.90;;;;;;5066523;28;20599;-86
2022/05/13 10:06:09;;;;;;;6.47;1.55;;;20.20;98.40;;;;;;5058269;28;20208;-86
2022/05/13 10:08:54;;;;;;;3.75;1.20;;;20.00;97.90;;;;;;5055428;28;20705;-84
2022/05/13 10:14:32;;;;;;;8.23;1.35;;;19.90;98.30;;;;;;5054376;28;20216;-83
2022/05/13 10:17:24;;;;;;;5.88;1.65;;;20.20;98.60;;;;;;5049952;28;20550;-83
2022/05/13 10:20:09;;;;;;;3.45;1.10;;;20.30;98.00;;;;;;5056111;28;20201;-85
2022/05/13 10:22:50;;;;;;;3.83;1.20;;;20.20;98.10;;;;;;5051250;28;20319;-84
2022/05/13 10:25:20;;;;;;;3.28;1.08;;;20.10;98.00;;;;;;5050968;28;20304;-87
2022/05/13 10:27:52;;;;;;;4.75;1.40;;;20.10;98.30;;;;;;5049435;28;20240;-87
2022/05/13 10:30:39;;;;;;;5.47;1.40;;;20.20;98.80;;;;;;5047987;28;20197;-84
2022/05/13 10:33:10;;;;;;;5.63;1.50;;;20.40;98.50;;;;;;5050452;28;20338;-85
2022/05/13 10:36:01;;;;;;;6.63;1.50;;;20.20;98.40;;;;;;5048631;28;20313;-87
2022/05/13 10:38:31;;;;;;;4.22;1.55;;;20.10;98.30;;;;;;5039523;28;21038;-85
2022/05/13 10:41:23;;;;;;;5.55;1.50;;;19.90;98.40;;;;;;5048733;28;20227;-84
2022/05/13 10:43:56;;;;;;;4.35;1.50;;;19.70;97.90;;;;;;5047237;28;20275;-84
2022/05/13 10:46:33;;;;;;;9.27;1.58;;;19.50;98.20;;;;;;5050353;28;20220;-86
2022/05/13 10:49:21;;;;;;;4.13;1.45;;;19.50;98.90;;;;;;5055785;28;20231;-84
2022/05/13 10:52:22;;;;;;;4.78;1.77;;;19.40;99.30;;;;;;5051157;28;20200;-81
2022/05/13 10:54:57;;;;;;;2.92;1.30;;;19.40;99.30;;;;;;5047027;28;20224;-82
2022/05/13 10:57:50;;;;;;;6.20;1.52;;;19.40;99.60;;;;;;5049546;28;20205;-84
2022/05/13 11:00:41;;;;;;;4.28;1.58;;;19.30;99.30;;;;;;5047000;28;20263;-84
2022/05/13 11:03:14;;;;;;;7.05;1.73;;;19.40;99.50;;;;;;5089539;28;20217;-83
2022/05/13 11:06:00;;;;;;;6.40;1.90;;;19.30;99.70;;;;;;5048449;28;20212;-85
2022/05/13 11:08:57;;;;;;;8.70;1.90;;;19.50;99.80;;;;;;5045548;28;20211;-86
2022/05/13 11:11:43;;;;;;;5.65;1.23;;;19.60;99.70;;;;;;5055093;28;20620;-82
2022/05/13 11:14:41;;;;;;;4.07;1.60;;;19.60;99.50;;;;;;5043902;28;20684;-83
2022/05/13 11:17:14;;;;;;;6.38;1.85;;;19.80;99.40;;;;;;5053851;28;20653;-84
2022/05/13 11:20:04;;;;;;;4.88;1.40;;;20.10;99.60;;;;;;5049319;28;20958;-83
2022/05/13 11:22:39;;;;;;;4.65;1.38;;;20.40;98.40;;;;;;5054772;28;20687;-82
2022/05/13 11:28:40;;;;;;;4.57;1.67;;;20.50;97.70;;;;;;5051116;28;20703;-82
2022/05/13 11:31:44;;;;;;;6.38;1.90;;;20.40;97.80;;;;;;5053083;28;20656;-86
2022/05/13 11:34:36;;;;;;;3.28;1.50;;;20.50;98.60;;;;;;5048404;28;20666;-83
2022/05/13 11:37:07;;;;;;;3.33;1.50;;;20.90;98.00;;;;;;5052282;28;20197;-85
2022/05/13 11:39:56;;;;;;;4.28;1.50;;;21.00;97.70;;;;;;5052144;28;20224;-84
2022/05/13 11:46:18;;;;;;;5.93;1.73;;;21.20;96.30;;;;;;5031620;28;20226;-82
2022/05/13 11:48:47;;;;;;;5.40;2.20;;;21.10;96.20;;;;;;5047233;28;20197;-81
2022/05/13 11:51:37;;;;;;;5.35;1.55;;;21.00;96.50;;;;;;5056679;28;20240;-83
2022/05/13 11:54:04;;;;;;;5.45;1.58;;;21.00;96.70;;;;;;5048795;28;20566;-83
2022/05/13 11:56:35;;;;;;;4.22;1.80;;;21.30;96.70;;;;;;5050652;28;20205;-85
2022/05/13 11:59:43;;;;;;;7.45;1.88;;;21.50;96.00;;;;;;5052332;28;20201;-83
2022/05/13 12:02:49;;;;;;;6.43;1.50;;;21.60;95.40;;;;;;5050382;28;20259;-84
2022/05/13 12:05:16;;;;;;;6.53;1.60;;;21.40;94.80;;;;;;5049996;28;20204;-84
2022/05/13 12:08:04;;;;;;;5.93;2.00;;;21.10;95.20;;;;;;5056089;28;20213;-83
2022/05/13 12:11:02;;;;;;;5.32;1.75;;;21.00;95.30;;;;;;5054219;23;20225;-89
2022/05/13 12:13:41;;;;;;;5.68;1.88;;;20.90;95.50;;;;;;5013051;28;20209;-87
2022/05/13 12:16:46;;;;;;;3.38;1.42;;;20.90;95.60;;;;;;5017552;28;20293;-89
2022/05/13 12:20:03;;;;;;;3.33;1.42;;;21.10;95.40;;;;;;5019386;28;20293;-89
2022/05/13 12:22:31;;;;;;;4.50;1.33;;;21.20;94.80;;;;;;5051531;28;20202;-89
2022/05/13 12:25:20;;;;;;;4.65;1.50;;;21.10;95.50;;;;;;5036657;28;20229;-87
2022/05/13 12:28:24;;;;;;;5.20;1.65;;;21.20;95.50;;;;;;5032208;28;20200;-89
2022/05/13 12:30:54;;;;;;;5.45;1.70;;;21.10;95.60;;;;;;5049047;28;20198;-88
2022/05/13 12:33:29;;;;;;;4.72;1.73;;;21.10;95.50;;;;;;5036994;28;21093;-88
2022/05/13 12:39:08;;;;;;;4.22;1.90;;;21.00;95.50;;;;;;5035013;28;20202;-88
2022/05/13 12:42:23;;;;;;;3.78;1.48;;;21.10;95.00;;;;;;5021542;28;20201;-88
2022/05/13 12:44:59;;;;;;;4.38;1.83;;;21.00;95.30;;;;;;5009217;28;20268;-89
2022/05/13 12:47:51;;;;;;;4.50;1.65;;;21.30;95.50;;;;;;5016007;28;20205;-88
2022/05/13 12:50:43;;;;;;;4.97;1.55;;;21.50;95.30;;;;;;5019025;28;20284;-90
2022/05/13 12:53:30;;;;;;;3.40;1.27;;;21.70;95.30;;;;;;5005260;28;20675;-89
2022/05/13 12:56:21;;;;;;;5.93;1.50;;;21.60;94.50;;;;;;5000092;28;20225;-92
2022/05/13 12:59:18;;;;;;;5.25;1.80;;;21.60;93.70;;;;;;5014322;28;20301;-89
2022/05/13 13:01:51;;;;;;;3.40;1.80;;;21.50;93.90;;;;;;4997735;28;20207;-90
2022/05/13 13:04:25;;;;;;;5.18;2.13;;;21.50;94.00;;;;;;5006184;28;20222;-91
2022/05/13 13:07:04;;;;;;;3.20;1.45;;;21.60;93.80;;;;;;4997519;28;20293;-91
2022/05/13 13:09:35;;;;;;;3.60;1.63;;;21.50;93.80;;;;;;5008010;28;20656;-90
2022/05/13 13:12:35;;;;;;;3.63;1.85;;;21.80;94.10;;;;;;5008973;28;20742;-91
2022/05/13 13:15:36;;;;;;;4.22;1.83;;;22.00;93.70;;;;;;5020869;28;20218;-91
2022/05/13 13:18:10;;;;;;;3.53;1.90;;;22.00;93.30;;;;;;5015367;28;20206;-91
2022/05/13 13:21:01;;;;;;;5.70;1.83;;;21.70;93.10;;;;;;5009967;28;20303;-90
2022/05/13 13:23:35;;;;;;;5.28;2.35;;;21.60;93.20;;;;;;5007129;28;20312;-90
2022/05/13 13:26:08;;;;;;;5.43;2.45;;;21.60;93.30;;;;;;5008986;28;20224;-90
2022/05/13 13:28:39;;;;;;;6.47;2.40;;;21.50;93.40;;;;;;5006705;28;20206;-89
2022/05/13 13:31:15;;;;;;;5.00;1.98;;;21.40;93.50;;;;;;5013088;28;20563;-89
2022/05/13 13:33:56;;;;;;;2.97;1.55;;;21.30;93.60;;;;;;5004353;28;20230;-89
2022/05/13 13:36:30;;;;;;;7.32;2.10;;;21.20;93.90;;;;;;4996834;28;20195;-89
2022/05/13 13:39:19;;;;;;;4.50;1.65;;;21.10;94.10;;;;;;5017839;28;20236;-90
2022/05/13 13:42:03;;;;;;;4.97;1.85;;;21.20;94.80;;;;;;5004019;28;20202;-91
2022/05/13 13:44:37;;;;;;;5.75;2.10;;;21.30;94.50;;;;;;5017075;28;20229;-92
2022/05/13 13:47:28;;;;;;;9.85;2.30;;;21.40;94.40;;;;;;5000998;28;20278;-89